createdAt,value
2019-03-24T00:00:05.179Z,10.2
2019-03-24T00:03:05.239Z,9.9
2019-03-24T00:06:05.178Z,10.4
2019-03-24T00:09:05.182Z,9.8
2019-03-24T00:12:05.241Z,10.3
2019-03-24T00:15:05.050Z,10.2
2019-03-24T00:18:05.026Z,10.6
2019-03-24T00:21:05.110Z,9.9
2019-03-24T00:24:05.180Z,9.9
2019-03-24T00:27:05.255Z,10
2019-03-24T00:30:05.002Z,9.8
2019-03-24T00:33:05.062Z,9.3
2019-03-24T00:36:05.108Z,9.3
2019-03-24T00:39:05.151Z,10.4
2019-03-24T00:42:05.176Z,9.9
2019-03-24T00:45:05.186Z,10.4
2019-03-24T00:48:04.978Z,10
2019-03-24T00:51:05.035Z,9.9
2019-03-24T00:54:05.057Z,10
2019-03-24T00:57:05.217Z,9.5
2019-03-24T01:00:05.192Z,9.7
2019-03-24T01:03:05.101Z,9.3
2019-03-24T01:06:05.014Z,9.8
2019-03-24T01:09:05.119Z,10.7
2019-03-24T01:12:05.108Z,10.5
2019-03-24T01:15:05.224Z,9.9
2019-03-24T01:18:05.216Z,9.9
2019-03-24T01:21:04.961Z,10
2019-03-24T01:24:04.969Z,9.6
2019-03-24T01:27:05.144Z,9.9
2019-03-24T01:30:05.158Z,10.1
2019-03-24T01:33:05.267Z,9.9
2019-03-24T01:36:05.256Z,9.2
2019-03-24T01:39:05.030Z,9.6
2019-03-24T01:42:04.987Z,9.6
2019-03-24T01:45:05.037Z,9.8
2019-03-24T01:48:05.171Z,10.1
2019-03-24T01:51:05.154Z,10.1
2019-03-24T01:54:05.196Z,9.7
2019-03-24T01:57:04.947Z,9.3
2019-03-24T02:00:05.032Z,10.2
2019-03-24T02:03:05.007Z,9.6
2019-03-24T02:06:05.244Z,9.6
2019-03-24T02:09:05.087Z,10
2019-03-24T02:12:05.154Z,9.7
2019-03-24T02:15:05.203Z,9.3
2019-03-24T02:18:05.000Z,9.3
2019-03-24T02:21:05.027Z,9.3
2019-03-24T02:24:05.084Z,9.5
2019-03-24T02:27:05.279Z,10.1
2019-03-24T02:30:05.238Z,10
2019-03-24T02:33:05.271Z,9.7
2019-03-24T02:36:05.000Z,9.2
2019-03-24T02:39:05.079Z,9.4
2019-03-24T02:42:05.078Z,9.2
2019-03-24T02:45:05.192Z,8.9
2019-03-24T02:48:05.326Z,8.7
2019-03-24T02:51:05.296Z,8.7
2019-03-24T02:54:05.032Z,9
2019-03-24T02:57:05.019Z,8.9
2019-03-24T03:00:05.513Z,8.7
2019-03-24T03:03:05.148Z,8.6
2019-03-24T03:06:05.160Z,8.8
2019-03-24T03:09:05.247Z,9.2
2019-03-24T03:12:05.155Z,8.6
2019-03-24T03:15:05.040Z,9
2019-03-24T03:18:05.044Z,9.1
2019-03-24T03:21:05.191Z,8.9
2019-03-24T03:24:05.080Z,9.1
2019-03-24T03:27:05.292Z,9.2
2019-03-24T03:30:05.288Z,9
2019-03-24T03:33:05.392Z,8.8
2019-03-24T03:36:05.203Z,8.8
2019-03-24T03:39:05.299Z,8.7
2019-03-24T03:42:05.520Z,8.4
2019-03-24T03:45:05.275Z,8.2
2019-03-24T03:48:05.213Z,8.3
2019-03-24T03:51:05.107Z,8.5
2019-03-24T03:54:05.060Z,8.7
2019-03-24T03:57:05.071Z,8.6
2019-03-24T04:00:05.119Z,8.7
2019-03-24T04:03:05.367Z,8.3
2019-03-24T04:06:05.161Z,8.5
2019-03-24T04:09:04.990Z,8.4
2019-03-24T04:12:04.993Z,8.2
2019-03-24T04:15:05.074Z,8.2
2019-03-24T04:18:05.101Z,8.3
2019-03-24T04:21:05.206Z,8.3
2019-03-24T04:24:05.164Z,8.6
2019-03-24T04:27:05.253Z,8.8
2019-03-24T04:30:05.196Z,8.6
2019-03-24T04:33:04.936Z,8.3
2019-03-24T04:36:05.012Z,8.4
2019-03-24T04:39:05.201Z,8.1
2019-03-24T04:42:05.083Z,7.8
2019-03-24T04:45:05.135Z,7.6
2019-03-24T04:48:05.343Z,8
2019-03-24T04:51:05.010Z,7.7
2019-03-24T04:54:05.058Z,7.5
2019-03-24T04:57:05.160Z,7.3
2019-03-24T05:00:05.121Z,7.1
2019-03-24T05:03:05.174Z,7
2019-03-24T05:06:04.972Z,6.7
2019-03-24T05:09:05.134Z,6.7
2019-03-24T05:12:05.167Z,6.7
2019-03-24T05:15:04.987Z,6.9
2019-03-24T05:18:05.123Z,6.5
2019-03-24T05:21:05.090Z,6.6
2019-03-24T05:24:04.974Z,6.5
2019-03-24T05:27:05.078Z,6.4
2019-03-24T05:30:05.397Z,6.3
2019-03-24T05:33:05.032Z,6.4
2019-03-24T05:36:05.124Z,6.4
2019-03-24T05:39:05.197Z,6.3
2019-03-24T05:42:04.950Z,6.3
2019-03-24T05:45:05.014Z,6
2019-03-24T05:48:04.968Z,6
2019-03-24T05:51:05.022Z,6
2019-03-24T05:54:05.142Z,5.9
2019-03-24T05:57:05.094Z,5.9
2019-03-24T06:00:05.053Z,5.9
2019-03-24T06:03:04.954Z,6
2019-03-24T06:06:05.011Z,6.4
2019-03-24T06:09:05.030Z,6.3
2019-03-24T06:12:05.173Z,6
2019-03-24T06:15:05.122Z,5.9
2019-03-24T06:18:04.912Z,5.9
2019-03-24T06:21:05.013Z,5.7
2019-03-24T06:24:04.949Z,5.8
2019-03-24T06:27:05.078Z,5.7
2019-03-24T06:30:05.036Z,6
2019-03-24T06:33:05.257Z,5.8
2019-03-24T06:36:05.360Z,5.8
2019-03-24T06:39:04.954Z,6.4
2019-03-24T06:42:04.951Z,6.1
2019-03-24T06:45:05.065Z,5.8
2019-03-24T06:48:05.065Z,5.7
2019-03-24T06:51:05.122Z,5.7
2019-03-24T06:54:05.023Z,5.6
2019-03-24T06:57:05.022Z,5.6
2019-03-24T07:00:04.931Z,5.4
2019-03-24T07:03:05.221Z,5.5
2019-03-24T07:06:05.285Z,5.5
2019-03-24T07:09:05.242Z,5.5
2019-03-24T07:12:04.924Z,5.4
2019-03-24T07:15:04.940Z,5.6
2019-03-24T07:18:09.274Z,5.6
2019-03-24T07:21:05.025Z,5.6
2019-03-24T07:24:05.147Z,5.6
2019-03-24T07:27:04.826Z,5.4
2019-03-24T07:30:04.899Z,5.4
2019-03-24T07:33:04.898Z,5.3
2019-03-24T07:36:05.019Z,5.4
2019-03-24T07:39:04.997Z,5.4
2019-03-24T07:42:05.967Z,5.4
2019-03-24T07:45:04.912Z,5.4
2019-03-24T07:48:04.941Z,5.3
2019-03-24T07:51:04.984Z,5.3
2019-03-24T07:54:05.036Z,5.6
2019-03-24T07:57:05.072Z,5.6
2019-03-24T08:00:05.064Z,5.5
2019-03-24T08:03:04.898Z,5.4
2019-03-24T08:06:05.997Z,5.4
2019-03-24T08:09:05.052Z,5.2
2019-03-24T08:12:05.006Z,5.2
2019-03-24T08:15:05.016Z,5.3
2019-03-24T08:18:04.894Z,5.7
2019-03-24T08:21:04.870Z,5.5
2019-03-24T08:24:05.226Z,5.2
2019-03-24T08:27:05.147Z,5.2
2019-03-24T08:30:04.981Z,5.2
2019-03-24T08:33:05.137Z,5.3
2019-03-24T08:36:04.802Z,5.2
2019-03-24T08:39:04.825Z,5.2
2019-03-24T08:42:05.000Z,5.1
2019-03-24T08:45:05.465Z,5.2
2019-03-24T08:48:05.036Z,5.3
2019-03-24T08:51:05.021Z,5.3
2019-03-24T08:54:04.824Z,5.1
2019-03-24T08:57:05.041Z,5
2019-03-24T09:00:04.963Z,5
2019-03-24T09:03:05.082Z,4.9
2019-03-24T09:06:05.112Z,5
2019-03-24T09:09:04.894Z,5
2019-03-24T09:12:04.817Z,4.9
2019-03-24T09:15:04.851Z,4.9
2019-03-24T09:18:04.991Z,4.9
2019-03-24T09:21:04.960Z,4.8
2019-03-24T09:24:05.055Z,7.8
2019-03-24T09:27:04.885Z,13.2
2019-03-24T09:30:04.901Z,16.9
2019-03-24T09:33:04.993Z,20.3
2019-03-24T09:36:05.039Z,23.1
2019-03-24T09:39:05.081Z,25.2
2019-03-24T09:42:05.061Z,26.3
2019-03-24T09:45:04.789Z,27.4
2019-03-24T09:48:04.846Z,28.1
2019-03-24T09:51:04.907Z,29.2
2019-03-24T09:54:05.120Z,28.3
2019-03-24T09:57:05.015Z,27.9
2019-03-24T10:00:05.134Z,25.8
2019-03-24T10:03:04.853Z,25.8
2019-03-24T10:06:04.880Z,26.5
2019-03-24T10:09:05.068Z,23.5
2019-03-24T10:12:04.961Z,22.6
2019-03-24T10:15:04.991Z,22.5
2019-03-24T10:18:04.740Z,22
2019-03-24T10:21:04.942Z,23.2
2019-03-24T10:24:04.866Z,22.2
2019-03-24T10:27:04.879Z,20
2019-03-24T10:30:04.940Z,18.1
2019-03-24T10:33:05.139Z,16.4
2019-03-24T10:36:04.886Z,15.5
2019-03-24T10:39:04.895Z,15.3
2019-03-24T10:42:04.980Z,18.9
2019-03-24T10:45:05.035Z,21.1
2019-03-24T10:48:04.973Z,23.7
2019-03-24T10:51:05.025Z,22
2019-03-24T10:54:05.113Z,20.7
2019-03-24T10:57:05.740Z,18.2
2019-03-24T11:00:05.013Z,16.5
2019-03-24T11:03:04.934Z,14.7
2019-03-24T11:06:05.077Z,16.9
2019-03-24T11:09:05.000Z,14.9
2019-03-24T11:12:04.836Z,13.8
2019-03-24T11:15:05.247Z,13.1
2019-03-24T11:18:04.949Z,12.9
2019-03-24T11:21:04.898Z,11.3
2019-03-24T11:24:04.953Z,10.8
2019-03-24T11:27:05.031Z,9.7
2019-03-24T11:30:04.805Z,10.2
2019-03-24T11:33:04.772Z,10.1
2019-03-24T11:36:04.805Z,9.5
2019-03-24T11:39:04.874Z,9.9
2019-03-24T11:42:04.944Z,9.8
2019-03-24T11:45:05.114Z,10.7
2019-03-24T11:48:04.836Z,10
2019-03-24T11:51:04.777Z,9.7
2019-03-24T11:54:04.842Z,8.7
2019-03-24T11:57:04.870Z,8.1
2019-03-24T12:00:04.944Z,8.8
2019-03-24T12:03:04.950Z,8.3
2019-03-24T12:06:15.334Z,7.8
2019-03-24T12:09:04.760Z,8.3
2019-03-24T12:12:04.812Z,8.1
2019-03-24T12:15:05.903Z,7.6
2019-03-24T12:18:04.902Z,6.7
2019-03-24T12:21:05.196Z,6.8
2019-03-24T12:24:04.807Z,6.5
2019-03-24T12:27:04.857Z,7
2019-03-24T12:30:04.780Z,6.3
2019-03-24T12:33:04.911Z,5.9
2019-03-24T12:36:04.897Z,5.5
2019-03-24T12:39:04.943Z,6
2019-03-24T12:42:04.988Z,6
2019-03-24T12:45:04.742Z,5.6
2019-03-24T12:48:04.843Z,6.3
2019-03-24T12:51:04.849Z,7.7
2019-03-24T12:54:04.979Z,6.8
2019-03-24T12:57:04.950Z,6.8
2019-03-24T13:00:04.975Z,6.3
2019-03-24T13:03:05.417Z,6.2
2019-03-24T13:06:04.792Z,6
2019-03-24T13:09:04.818Z,5.8
2019-03-24T13:12:04.831Z,5.8
2019-03-24T13:15:04.933Z,5.6
2019-03-24T13:18:05.049Z,5.7
2019-03-24T13:21:04.712Z,6.2
2019-03-24T13:24:04.951Z,6.4
2019-03-24T13:27:04.913Z,5.9
2019-03-24T13:30:04.829Z,5.6
2019-03-24T13:33:05.056Z,5.3
2019-03-24T13:36:04.899Z,5.4
2019-03-24T13:39:04.827Z,5.7
2019-03-24T13:42:04.780Z,6.9
2019-03-24T13:45:04.789Z,8.7
2019-03-24T13:48:04.958Z,8.1
2019-03-24T13:51:04.897Z,8.5
2019-03-24T13:54:04.933Z,7.9
2019-03-24T13:57:04.993Z,8.2
2019-03-24T14:00:04.754Z,8.1
2019-03-24T14:03:04.716Z,8.2
2019-03-24T14:06:04.925Z,7.9
2019-03-24T14:09:04.800Z,6.9
2019-03-24T14:12:04.855Z,6.8
2019-03-24T14:15:04.883Z,6.7
2019-03-24T14:18:04.806Z,6.6
2019-03-24T14:21:04.834Z,6.8
2019-03-24T14:24:04.748Z,6
2019-03-24T14:27:04.871Z,6
2019-03-24T14:30:05.281Z,7.6
2019-03-24T14:33:04.915Z,9.7
2019-03-24T14:36:05.021Z,8.6
2019-03-24T14:39:04.777Z,8
2019-03-24T14:42:04.788Z,8.3
2019-03-24T14:45:04.817Z,9.6
2019-03-24T14:48:04.837Z,8.8
2019-03-24T14:51:06.078Z,8.3
2019-03-24T14:54:04.865Z,7.2
2019-03-24T15:02:21.369Z,6.7
2019-03-24T15:05:21.359Z,6.3
2019-03-24T15:08:21.145Z,6.1
2019-03-24T15:11:21.214Z,7.7
2019-03-24T15:14:21.204Z,7.4
2019-03-24T15:17:21.242Z,7.2
2019-03-24T15:20:21.457Z,6.5
2019-03-24T15:23:21.288Z,7.3
2019-03-24T15:26:21.069Z,6.7
2019-03-24T15:29:21.248Z,6.3
2019-03-24T15:32:21.218Z,5.7
2019-03-24T15:35:22.548Z,6.2
2019-03-24T15:38:21.175Z,6.5
2019-03-24T15:41:21.207Z,6
2019-03-24T15:44:21.114Z,5.7
2019-03-24T15:47:21.324Z,5.6
2019-03-24T15:50:21.258Z,5.9
2019-03-24T15:53:21.313Z,5.7
2019-03-24T15:56:21.771Z,6.3
2019-03-24T15:59:21.297Z,5.6
2019-03-24T16:02:20.992Z,5.5
2019-03-24T16:05:21.073Z,5.3
2019-03-24T16:08:21.098Z,5.5
2019-03-24T16:11:21.226Z,5.3
2019-03-24T16:14:21.278Z,5.3
2019-03-24T16:17:21.455Z,5.5
2019-03-24T16:20:20.993Z,5.3
2019-03-24T16:23:21.101Z,5
2019-03-24T16:26:21.203Z,5.1
2019-03-24T16:29:21.280Z,5
2019-03-24T16:32:21.166Z,4.8
2019-03-24T16:35:21.181Z,5.3
2019-03-24T16:38:21.230Z,4.9
2019-03-24T16:41:21.109Z,4.8
2019-03-24T16:44:21.161Z,4.7
2019-03-24T16:47:21.061Z,4.6
2019-03-24T16:50:21.302Z,4.6
2019-03-24T16:53:21.193Z,4.5
2019-03-24T16:56:21.290Z,5.6
2019-03-24T16:59:22.468Z,5.6
2019-03-24T17:02:21.084Z,5.4
2019-03-24T17:05:21.165Z,5.2
2019-03-24T17:08:21.134Z,5.1
2019-03-24T17:11:21.173Z,4.8
2019-03-24T17:14:21.523Z,5.4
2019-03-24T17:17:20.984Z,5.2
2019-03-24T17:20:21.189Z,5.1
2019-03-24T17:23:21.414Z,4.7
2019-03-24T17:26:21.172Z,4.6
2019-03-24T17:29:21.226Z,5
2019-03-24T17:32:21.256Z,4.6
2019-03-24T17:35:21.274Z,4.8
2019-03-24T17:38:21.028Z,4.7
2019-03-24T17:41:21.068Z,4.7
2019-03-24T17:44:21.317Z,4.6
2019-03-24T17:47:21.228Z,5
2019-03-24T17:50:21.258Z,5.2
2019-03-24T17:53:22.658Z,5.3
2019-03-24T17:56:21.192Z,5.6
2019-03-24T17:59:21.138Z,6
2019-03-24T18:02:21.052Z,5.1
2019-03-24T18:05:21.231Z,4.8
2019-03-24T18:08:22.401Z,5.5
2019-03-24T18:11:21.232Z,4.9
2019-03-24T18:14:21.028Z,4.7
2019-03-24T18:17:21.016Z,4.3
2019-03-24T18:20:21.189Z,4.4
2019-03-24T18:23:21.207Z,4.5
2019-03-24T18:26:21.152Z,4.9
2019-03-24T18:29:21.162Z,4.5
2019-03-24T18:32:23.616Z,4.6
2019-03-24T18:35:21.083Z,4.3
2019-03-24T18:38:21.091Z,4.1
2019-03-24T18:41:21.145Z,4.2
2019-03-24T18:44:21.128Z,4.2
2019-03-24T18:47:21.159Z,4.4
2019-03-24T18:50:21.529Z,4.3
2019-03-24T18:53:21.046Z,4.2
2019-03-24T18:56:21.127Z,5.2
2019-03-24T18:59:21.188Z,5
2019-03-24T19:02:21.097Z,4.4
2019-03-24T19:05:21.151Z,4.2
2019-03-24T19:08:21.326Z,4.1
2019-03-24T19:11:21.039Z,3.9
2019-03-24T19:14:21.376Z,4.6
2019-03-24T19:17:21.194Z,4
2019-03-24T19:20:21.152Z,4
2019-03-24T19:23:21.256Z,3.9
2019-03-24T19:26:21.239Z,4.6
2019-03-24T19:29:21.057Z,4.1
2019-03-24T19:32:21.094Z,3.9
2019-03-24T19:35:21.185Z,3.8
2019-03-24T19:38:21.189Z,4.2
2019-03-24T19:41:21.163Z,3.9
2019-03-24T19:44:21.254Z,3.8
2019-03-24T19:47:20.999Z,3.6
2019-03-24T19:50:21.038Z,3.6
2019-03-24T19:53:21.036Z,3.6
2019-03-24T19:56:21.027Z,3.6
2019-03-24T19:59:21.207Z,4.7
2019-03-24T20:02:21.120Z,4.9
2019-03-24T20:05:21.033Z,4.9
2019-03-24T20:08:20.963Z,4.2
2019-03-24T20:11:21.063Z,4.1
2019-03-24T20:14:21.058Z,4.5
2019-03-24T20:17:21.272Z,4.7
2019-03-24T20:20:21.215Z,4.4
2019-03-24T20:23:21.295Z,4.1
2019-03-24T20:26:21.042Z,4.1
2019-03-24T20:29:20.948Z,4.3
2019-03-24T20:32:20.987Z,4.4
2019-03-24T20:35:21.073Z,4
2019-03-24T20:38:21.311Z,4.1
2019-03-24T20:41:20.956Z,3.9
2019-03-24T20:44:21.090Z,3.8
2019-03-24T20:47:21.031Z,3.7
2019-03-24T20:50:21.048Z,3.8
2019-03-24T20:53:21.067Z,3.7
2019-03-24T20:56:21.396Z,3.6
2019-03-24T20:59:21.150Z,3.6
2019-03-24T21:02:20.990Z,3.5
2019-03-24T21:05:21.112Z,3.5
2019-03-24T21:08:21.150Z,3.7
2019-03-24T21:11:21.011Z,4.1
2019-03-24T21:14:21.154Z,3.9
2019-03-24T21:17:21.159Z,3.8
2019-03-24T21:20:20.936Z,3.7
2019-03-24T21:23:30.453Z,3.7
2019-03-24T21:26:21.024Z,3.7
2019-03-24T21:29:21.179Z,3.7
2019-03-24T21:32:21.143Z,3.9
2019-03-24T21:35:21.352Z,4
2019-03-24T21:38:20.885Z,4.1
2019-03-24T21:41:21.051Z,4.4
2019-03-24T21:44:21.317Z,4.2
2019-03-24T21:47:21.000Z,4.3
2019-03-24T21:50:21.118Z,4
2019-03-24T21:53:21.097Z,3.9
2019-03-24T21:56:21.035Z,3.6
2019-03-24T21:59:20.969Z,3.8
2019-03-24T22:02:21.029Z,3.6
2019-03-24T22:05:21.295Z,3.7
2019-03-24T22:08:21.132Z,4.3
2019-03-24T22:11:21.198Z,3.9
2019-03-24T22:14:20.873Z,3.7
2019-03-24T22:17:21.073Z,3.6
2019-03-24T22:20:21.025Z,3.3
2019-03-24T22:23:21.151Z,3.4
2019-03-24T22:26:21.194Z,3.4
2019-03-24T22:29:21.090Z,3.6
2019-03-24T22:32:20.993Z,3.4
2019-03-24T22:35:21.050Z,3.4
2019-03-24T22:38:21.087Z,3.6
2019-03-24T22:41:21.036Z,3.6
2019-03-24T22:44:21.146Z,3.4
2019-03-24T22:47:21.113Z,3.4
2019-03-24T22:50:20.883Z,3.3
2019-03-24T22:53:20.925Z,3.7
2019-03-24T22:56:20.929Z,3.4
2019-03-24T22:59:21.000Z,3.3
2019-03-24T23:02:21.072Z,3.4
2019-03-24T23:05:21.083Z,3.3
2019-03-24T23:08:20.916Z,3.4
2019-03-24T23:11:20.907Z,3.2
2019-03-24T23:14:20.994Z,3.2
2019-03-24T23:17:21.085Z,3.3
2019-03-24T23:20:21.071Z,3.2
2019-03-24T23:23:21.123Z,3.2
2019-03-24T23:26:20.870Z,3.2
2019-03-24T23:29:20.972Z,3.2
2019-03-24T23:32:20.927Z,3.1
2019-03-24T23:35:21.038Z,3.1
2019-03-24T23:38:21.027Z,3
2019-03-24T23:41:21.331Z,2.9
2019-03-24T23:44:20.913Z,3
2019-03-24T23:47:20.924Z,3.1
2019-03-24T23:50:20.960Z,3
2019-03-24T23:53:21.587Z,3
2019-03-24T23:56:21.131Z,2.9
2019-03-24T23:59:21.218Z,2.9
